Flight Track Log - Related Links

Times and Time Zones

All times are in EDT time to prevent confusion due to time zone crossing. See the N30852 flight status page for this flight to view local times or setup timezone preferences in your user account.


Time Position Orientation Groundspeed Altitude Reporting Facility
EDT Latitude Longitude Course Direction KTS MPH feet Rate Location/Type
Wed 10:01:27 AM 35.4761 -81.1697 241° Southwest 51 59 1,200  Level Atlanta Center
Wed 10:02:04 AM 35.4703 -81.1828 241° Southwest 73 84 1,500 612 Climbing Atlanta Center
Wed 10:03:05 AM 35.4519 -81.2036 223° Southwest 76 87 2,200 541 Climbing Atlanta Center
Wed 10:04:06 AM 35.4419 -81.2219 236° Southwest 70 81 2,600 446 Climbing Atlanta Center
Wed 10:05:06 AM 35.4586 -81.2264 348° North 44 51 3,100 550 Climbing Atlanta Center
Wed 10:06:06 AM 35.4772 -81.2233 North 57 66 3,700 550 Climbing Atlanta Center
Wed 10:07:06 AM 35.4981 -81.2175 13° North 69 79 4,200 450 Climbing Atlanta Center
Wed 10:08:06 AM 35.5147 -81.2169 North 64 74 4,600 400 Climbing Atlanta Center
Wed 10:09:06 AM 35.5314 -81.2189 355° North 64 74 5,000 350 Climbing Atlanta Center
Wed 10:10:06 AM 35.5525 -81.2206 356° North 72 83 5,300 350 Climbing Atlanta Center
Wed 10:11:06 AM 35.5733 -81.2225 356° North 72 83 5,700 350 Climbing Atlanta Center
Wed 10:12:06 AM 35.5964 -81.2269 351° North 72 83 6,000 300 Climbing Atlanta Center
Wed 10:13:06 AM 35.6128 -81.2186 22° Northeast 67 77 6,300 300 Climbing Atlanta Center
Wed 10:14:06 AM 35.6381 -81.2281 343° North 72 83 6,600 350 Climbing Atlanta Center
Wed 10:15:06 AM 35.6611 -81.2297 357° North 79 91 7,000 250 Climbing Atlanta Center
Wed 10:16:06 AM 35.6903 -81.2339 353° North 90 104 7,100  Climbing Atlanta Center
Wed 10:17:06 AM 35.7197 -81.2381 353° North 95 109 7,000 -50 Descending Atlanta Center
Wed 10:18:06 AM 35.7492 -81.2497 342° North 108 124 7,000  Level Atlanta Center
Wed 10:19:06 AM 35.7767 -81.2642 337° Northwest 108 124 7,000  Level Atlanta Center
Wed 10:20:06 AM 35.8039 -81.2761 340° North 113 130 7,000  Level Atlanta Center
Wed 10:21:06 AM 35.8353 -81.2725 North 108 124 7,000 50 Level Atlanta Center
Wed 10:22:06 AM 35.8619 -81.2536 30° Northeast 103 119 7,100  Climbing Atlanta Center
Wed 10:23:06 AM 35.8928 -81.2397 20° North 109 125 7,000 -50 Descending Atlanta Center
Wed 10:24:06 AM 35.9217 -81.2233 25° Northeast 109 125 7,000  Level Atlanta Center
Wed 10:25:06 AM 35.9525 -81.2067 24° Northeast 109 125 7,000 -50 Level Atlanta Center
Wed 10:26:06 AM 35.9856 -81.1878 25° Northeast 109 125 6,900 50 Descending Atlanta Center
Wed 10:27:06 AM 36.0122 -81.1714 26° Northeast 111 128 7,100 50 Climbing Atlanta Center
Wed 10:28:06 AM 36.0411 -81.1550 25° Northeast 110 127 7,000 -50 Descending Atlanta Center
Wed 10:29:06 AM 36.0700 -81.1386 25° Northeast 118 136 7,000 50 Level Atlanta Center
Wed 10:30:06 AM 36.1006 -81.1169 30° Northeast 113 130 7,100  Climbing Atlanta Center
Wed 10:31:06 AM 36.1294 -81.1031 21° North 113 130 7,000 -50 Descending Atlanta Center
Wed 10:32:06 AM 36.1603 -81.0839 27° Northeast 113 130 7,000  Level Atlanta Center
Wed 10:33:06 AM 36.1892 -81.0672 25° Northeast 113 130 7,000 50 Level Atlanta Center
Wed 10:34:06 AM 36.2181 -81.0533 21° North 113 130 7,100 50 Climbing Atlanta Center
Wed 10:35:06 AM 36.2489 -81.0369 23° Northeast 113 130 7,100 -50 Level Atlanta Center
Wed 10:36:06 AM 36.2778 -81.0178 28° Northeast 113 130 7,000 -100 Descending Atlanta Center
Wed 10:37:06 AM 36.3083 -80.9958 30° Northeast 113 130 6,900 50 Descending Atlanta Center
Wed 10:38:06 AM 36.3350 -80.9742 33° Northeast 113 130 7,100 100 Climbing Atlanta Center
Wed 10:39:06 AM 36.3636 -80.9553 28° Northeast 113 130 7,100 50 Level Atlanta Center
Wed 10:40:06 AM 36.3925 -80.9361 28° Northeast 113 130 7,200  Climbing Atlanta Center
Wed 10:41:06 AM 36.4208 -80.9117 35° Northeast 113 130 7,100 -50 Descending Atlanta Center
Wed 10:42:06 AM 36.4475 -80.8925 30° Northeast 113 130 7,100  Level Atlanta Center
Wed 10:43:06 AM 36.4783 -80.8733 27° Northeast 113 130 7,100 -50 Level Atlanta Center
Wed 10:44:06 AM 36.5069 -80.8542 28° Northeast 113 130 7,000  Descending Atlanta Center
Wed 10:45:06 AM 36.5336 -80.8322 33° Northeast 113 130 7,100 50 Climbing Atlanta Center
Wed 10:46:06 AM 36.5644 -80.8156 23° Northeast 113 130 7,100  Level Atlanta Center
Wed 10:47:06 AM 36.5931 -80.7939 31° Northeast 113 130 7,100  Level Atlanta Center
Wed 10:48:06 AM 36.6239 -80.7797 20° North 113 130 7,100  Level Atlanta Center
Wed 10:49:06 AM 36.6547 -80.7578 30° Northeast 118 136 7,100  Level Atlanta Center
Wed 10:50:06 AM 36.6814 -80.7411 27° Northeast 113 130 7,100  Level Atlanta Center
Wed 10:51:06 AM 36.7100 -80.7217 29° Northeast 113 130 7,100  Level Atlanta Center
Wed 10:52:06 AM 36.7386 -80.7022 29° Northeast 113 130 7,100 -50 Level Atlanta Center
Wed 10:53:06 AM 36.7672 -80.6831 28° Northeast 113 130 7,000  Descending Atlanta Center
Wed 10:54:06 AM 36.8003 -80.6636 25° Northeast 113 130 7,100  Climbing Atlanta Center
Wed 10:55:06 AM 36.8308 -80.6414 30° Northeast 113 130 7,000 -100 Descending Atlanta Center
Wed 10:56:06 AM 36.8617 -80.6219 27° Northeast 113 130 6,900 -250 Descending Atlanta Center
Wed 10:57:06 AM 36.8883 -80.6053 27° Northeast 113 130 6,500 -350 Descending Atlanta Center
Wed 10:58:06 AM 36.9192 -80.5908 21° North 118 136 6,200 -200 Descending Atlanta Center
Wed 10:59:06 AM 36.9478 -80.5714 29° Northeast 113 130 6,100 -100 Descending Atlanta Center
Wed 11:01:00 AM 36.9935 -80.5257 31° Northeast  Level FlightAware Approximate

Login

Don't have an account? Register now (free) for customized features, flight alerts, and more!